• Join FlightAware (Why Join?)
  • Login
  • US Flag 
02:49PM EDT


 

Airport Tracker/Info


-or-


 

Live Flight TrackerFlight Track Log ✈ GLA91R ✈ 28-Jun-2013 ✈ KRIW - KDEN

Flight Track Log - Related Links

Times and Time Zones

All times are in EDT time to prevent confusion due to time zone crossing. See the GLA91R flight status page for this flight to view local times or setup timezone preferences in your user account.

Time Position Orientation Groundspeed Altitude Reporting Facility
EDT Latitude Longitude Course Direction KTS MPH feet Rate Location/Type
10:08AM 42.7237 -108.0314 160° South  Level Estimated
10:08AM 43.0003 -108.4536 177° South 193 222 9,900  Level Denver Center
10:09AM 42.6668 -107.9605 152° Southeast  Level Estimated
10:09AM 42.9569 -108.3942 135° Southeast 230 265 11,000  Level Salt Lake Center
10:10AM 42.5958 -108.0017 203° Southwest  Level FlightAware Approximate
10:10AM 42.9072 -108.3372 140° Southeast 237 273 12,200  Level Salt Lake Center
10:11AM 42.5399 -107.9294 154° Southeast  Level Estimated
10:12AM 42.4634 -107.9433 188° South  Level FlightAware Approximate
10:12AM 42.8425 -108.2789 147° Southeast 245 282 13,400  Level Salt Lake Center
10:13AM 42.4083 -107.8700 155° Southeast  Level Estimated
10:13AM 42.7853 -108.2317 149° Southeast 249 287 14,500  Level Salt Lake Center
10:14AM 42.3313 -107.8640 177° South  Level FlightAware Approximate
10:14AM 42.7219 -108.1767 147° Southeast 246 283 15,700  Level Salt Lake Center
10:15AM 42.6669 -108.1339 150° Southeast 243 280 16,600 780 Climbing Salt Lake Center
10:16AM 42.6094 -108.0922 152° Southeast 243 280 17,400 720 Climbing Salt Lake Center
10:17AM 42.5408 -108.0442 153° Southeast 246 283 18,100 720 Climbing Salt Lake Center
10:18AM 42.4833 -108.0047 153° Southeast 245 282 18,900 780 Climbing Salt Lake Center
10:19AM 42.4147 -107.9625 156° South 244 281 19,800 720 Climbing Salt Lake Center
10:20AM 42.3539 -107.9283 157° South 245 282 20,500 720 Climbing Salt Lake Center
10:21AM 42.2844 -107.8922 159° South 243 280 21,400 720 Climbing Salt Lake Center
10:22AM 42.2236 -107.8661 162° South 240 276 22,000 660 Climbing Salt Lake Center
10:23AM 42.1506 -107.8369 164° South 244 281 22,800 660 Climbing Salt Lake Center
10:24AM 42.0858 -107.8114 164° South 250 288 23,400 600 Climbing Salt Lake Center
10:25AM 42.0231 -107.7858 163° South 248 285 24,100 540 Climbing Salt Lake Center
10:26AM 41.9489 -107.7481 159° South 253 291 24,600 420 Climbing Salt Lake Center
10:27AM 41.8872 -107.7069 154° Southeast 257 296 25,000 180 Climbing Salt Lake Center
10:28AM 41.8122 -107.6533 152° Southeast 271 312 25,000  Level Salt Lake Center
10:29AM 41.7672 -107.5706 126° Southeast 293 337 25,000  Level Salt Lake Center
10:30AM 41.7292 -107.4592 115° Southeast 295 339 25,000  Level Salt Lake Center
10:31AM 41.6961 -107.3600 114° Southeast 304 350 25,000  Level Salt Lake Center
10:32AM 41.6694 -107.2578 109° East 306 352 25,000  Level Salt Lake Center
10:33AM 41.6436 -107.1378 106° East 303 349 25,000  Level Salt Lake Center
10:34AM 41.6208 -107.0364 107° East 300 345 25,000  Level Salt Lake Center
10:35AM 41.5961 -106.9178 106° East 297 342 25,000 -240 Level Salt Lake Center
10:36AM 41.5739 -106.8147 106° East 300 345 24,600 -540 Descending Salt Lake Center
10:37AM 41.5450 -106.6850 107° East 324 373 23,900 -600 Descending Salt Lake Center
10:38AM 41.5214 -106.5711 105° East 331 381 23,400 -480 Descending Salt Lake Center
10:39AM 41.4953 -106.4389 105° East 331 381 23,000 -180 Descending Salt Lake Center
10:41AM 41.4658 -106.2828 104° East 321 369 23,000 -180 Level Denver Center
10:42AM 41.4456 -106.1733 104° East 317 365 22,600 -540 Descending Denver Center
10:43AM 41.4181 -106.0428 106° East 327 376 21,900 -660 Descending Denver Center
10:44AM 41.3869 -105.9311 110° East 334 384 21,300 -540 Descending Denver Center
10:45AM 41.3492 -105.8256 115° Southeast 332 382 20,700 -600 Descending Denver Center
10:46AM 41.2908 -105.6861 119° Southeast 336 387 20,000 -900 Descending Denver Center
10:47AM 41.2300 -105.5744 126° Southeast 335 386 18,900 -960 Descending Denver Center
10:48AM 41.1750 -105.4783 127° Southeast 340 391 18,100 -540 Descending Denver Center
10:49AM 41.1103 -105.3697 128° Southeast 338 389 17,800 -540 Descending Denver Center
10:50AM 41.0533 -105.2817 131° Southeast 333 383 17,100 -960 Descending Denver Center
10:51AM 40.9869 -105.1839 132° Southeast 326 375 15,900 -1,500 Descending Denver Center
10:52AM 40.9242 -105.0989 134° Southeast 329 379 14,000 -1,380 Descending Denver Center
10:53AM 40.8517 -104.9903 131° Southeast 340 391 13,100 -480 Descending Denver Center
10:54AM 40.7942 -104.9022 131° Southeast 339 390 13,100 -300 Level Denver Center
10:55AM 40.7283 -104.8181 136° Southeast 325 374 12,600 -1,020 Descending Denver Center
10:56AM 40.6600 -104.7406 139° Southeast 325 374 11,100 -780 Descending Denver Center
10:57AM 40.5819 -104.6644 143° Southeast 325 374 11,000 -180 Descending Denver Center
10:58AM 40.5142 -104.6011 145° Southeast 304 350 10,800 -540 Descending Denver Center
10:59AM 40.4378 -104.5306 145° Southeast 309 356 10,000 -420 Descending Denver Center
11:01AM 40.3683 -104.4678 145° Southeast 305 351 10,000 -300 Level Denver Center
11:02AM 40.3003 -104.4069 146° Southeast 298 343 9,400 -480 Descending Denver Center
11:03AM 40.2269 -104.3414 146° Southeast 297 342 9,100 -180 Descending Denver Center
11:04AM 40.1678 -104.2856 144° Southeast 273 314 9,100  Level Denver Center
11:05AM 40.1003 -104.2625 165° South 241 277 9,100  Level Denver Center
11:06AM 40.0192 -104.2522 174° South 237 273 9,100 -240 Level Denver Center
11:07AM 39.9625 -104.2400 171° South 213 245 8,700 -540 Descending Denver Center
11:08AM 39.9089 -104.2181 163° South 194 223 8,100 -360 Descending Denver Center
11:09AM 39.8808 -104.2694 235° Southwest 181 208 8,000 -60 Descending Denver Center
11:10AM 39.8769 -104.3317 265° West 174 200 8,000  Level Denver Center
11:11AM 39.8756 -104.4178 269° West 181 208 8,000 -240 Level Denver Center
11:12AM 39.8758 -104.4822 270° West 179 206 7,600 -780 Descending Denver Center
11:13AM 39.8764 -104.5494 271° West 175 201 6,500 -900 Descending Denver Center
11:14AM 39.8769 -104.6003 271° West 148 170 5,800 -540 Descending Denver Center
11:15AM 39.8778 -104.6544 271° West 142 163 5,400 -420 Descending Denver Center